sensor_id;sensor_type;location;lat;lon;timestamp;temperature;humidity
18894;DHT22;9579;49.488;8.226;2023-06-05T00:02:21;19.50;59.20
18894;DHT22;9579;49.488;8.226;2023-06-05T00:05:08;19.50;60.70
18894;DHT22;9579;49.488;8.226;2023-06-05T00:07:57;19.50;58.60
18894;DHT22;9579;49.488;8.226;2023-06-05T00:10:44;19.40;59.00
18894;DHT22;9579;49.488;8.226;2023-06-05T00:13:31;19.30;59.10
18894;DHT22;9579;49.488;8.226;2023-06-05T00:16:18;19.30;58.80
18894;DHT22;9579;49.488;8.226;2023-06-05T00:19:05;19.30;59.10
18894;DHT22;9579;49.488;8.226;2023-06-05T00:21:52;19.30;59.00
18894;DHT22;9579;49.488;8.226;2023-06-05T00:24:41;19.30;59.40
18894;DHT22;9579;49.488;8.226;2023-06-05T00:27:28;19.20;58.40
18894;DHT22;9579;49.488;8.226;2023-06-05T00:30:15;19.20;58.60
18894;DHT22;9579;49.488;8.226;2023-06-05T00:33:02;19.20;58.80
18894;DHT22;9579;49.488;8.226;2023-06-05T00:35:50;19.20;60.30
18894;DHT22;9579;49.488;8.226;2023-06-05T00:38:37;19.10;58.80
18894;DHT22;9579;49.488;8.226;2023-06-05T00:41:25;19.10;58.70
18894;DHT22;9579;49.488;8.226;2023-06-05T00:44:12;19.20;60.00
18894;DHT22;9579;49.488;8.226;2023-06-05T00:47:00;19.10;58.60
18894;DHT22;9579;49.488;8.226;2023-06-05T00:49:47;19.10;58.30
18894;DHT22;9579;49.488;8.226;2023-06-05T00:52:35;19.10;60.00
18894;DHT22;9579;49.488;8.226;2023-06-05T00:55:22;19.10;58.80
18894;DHT22;9579;49.488;8.226;2023-06-05T00:58:10;19.10;59.60
18894;DHT22;9579;49.488;8.226;2023-06-05T01:00:57;19.10;59.60
18894;DHT22;9579;49.488;8.226;2023-06-05T01:03:45;19.00;58.40
18894;DHT22;9579;49.488;8.226;2023-06-05T01:06:33;19.00;58.20
18894;DHT22;9579;49.488;8.226;2023-06-05T01:09:20;18.90;58.40
18894;DHT22;9579;49.488;8.226;2023-06-05T01:12:11;18.90;59.50
18894;DHT22;9579;49.488;8.226;2023-06-05T01:15:03;18.80;58.50
18894;DHT22;9579;49.488;8.226;2023-06-05T01:17:51;18.70;58.80
18894;DHT22;9579;49.488;8.226;2023-06-05T01:20:39;18.70;59.60
18894;DHT22;9579;49.488;8.226;2023-06-05T01:23:28;18.70;58.70
18894;DHT22;9579;49.488;8.226;2023-06-05T01:26:20;18.60;59.00
18894;DHT22;9579;49.488;8.226;2023-06-05T01:29:14;18.60;58.90
18894;DHT22;9579;49.488;8.226;2023-06-05T01:32:05;18.50;58.90
18894;DHT22;9579;49.488;8.226;2023-06-05T01:34:53;18.50;59.60
18894;DHT22;9579;49.488;8.226;2023-06-05T01:37:41;18.50;59.90
18894;DHT22;9579;49.488;8.226;2023-06-05T01:40:34;18.50;59.50
18894;DHT22;9579;49.488;8.226;2023-06-05T01:43:22;18.60;59.40
18894;DHT22;9579;49.488;8.226;2023-06-05T01:46:09;18.40;59.90
18894;DHT22;9579;49.488;8.226;2023-06-05T01:48:56;18.30;59.70
18894;DHT22;9579;49.488;8.226;2023-06-05T01:51:47;18.30;60.50
18894;DHT22;9579;49.488;8.226;2023-06-05T01:54:33;18.30;60.00
18894;DHT22;9579;49.488;8.226;2023-06-05T01:57:22;18.30;60.80
18894;DHT22;9579;49.488;8.226;2023-06-05T02:00:10;18.30;60.40
18894;DHT22;9579;49.488;8.226;2023-06-05T02:03:01;18.30;60.30
18894;DHT22;9579;49.488;8.226;2023-06-05T02:05:48;18.20;59.80
18894;DHT22;9579;49.488;8.226;2023-06-05T02:08:36;18.20;59.80
18894;DHT22;9579;49.488;8.226;2023-06-05T02:11:23;18.20;60.10
18894;DHT22;9579;49.488;8.226;2023-06-05T02:14:13;18.10;60.30
18894;DHT22;9579;49.488;8.226;2023-06-05T02:17:01;18.00;60.70
18894;DHT22;9579;49.488;8.226;2023-06-05T02:19:50;17.90;60.60
18894;DHT22;9579;49.488;8.226;2023-06-05T02:22:37;17.90;62.20
18894;DHT22;9579;49.488;8.226;2023-06-05T02:25:24;17.90;60.90
18894;DHT22;9579;49.488;8.226;2023-06-05T02:28:12;17.80;62.00
18894;DHT22;9579;49.488;8.226;2023-06-05T02:31:01;17.80;61.90
18894;DHT22;9579;49.488;8.226;2023-06-05T02:33:48;17.90;60.80
18894;DHT22;9579;49.488;8.226;2023-06-05T02:36:35;17.90;60.90
18894;DHT22;9579;49.488;8.226;2023-06-05T02:39:22;17.90;61.40
18894;DHT22;9579;49.488;8.226;2023-06-05T02:42:09;17.70;60.30
18894;DHT22;9579;49.488;8.226;2023-06-05T02:44:58;17.80;61.20
18894;DHT22;9579;49.488;8.226;2023-06-05T02:47:48;17.70;60.30
18894;DHT22;9579;49.488;8.226;2023-06-05T02:50:35;17.80;60.80
18894;DHT22;9579;49.488;8.226;2023-06-05T02:53:22;17.70;60.70
18894;DHT22;9579;49.488;8.226;2023-06-05T02:56:09;17.80;60.00
18894;DHT22;9579;49.488;8.226;2023-06-05T02:58:56;17.70;60.20
18894;DHT22;9579;49.488;8.226;2023-06-05T03:01:43;17.80;60.00
18894;DHT22;9579;49.488;8.226;2023-06-05T03:04:34;17.70;60.50
18894;DHT22;9579;49.488;8.226;2023-06-05T03:07:21;17.50;60.50
18894;DHT22;9579;49.488;8.226;2023-06-05T03:10:09;17.60;60.60
18894;DHT22;9579;49.488;8.226;2023-06-05T03:12:56;17.60;60.60
18894;DHT22;9579;49.488;8.226;2023-06-05T03:15:43;17.50;60.50
18894;DHT22;9579;49.488;8.226;2023-06-05T03:18:32;17.50;60.70
18894;DHT22;9579;49.488;8.226;2023-06-05T03:21:20;17.50;61.50
18894;DHT22;9579;49.488;8.226;2023-06-05T03:24:09;17.50;63.10
18894;DHT22;9579;49.488;8.226;2023-06-05T03:26:58;17.50;61.00
18894;DHT22;9579;49.488;8.226;2023-06-05T03:29:46;17.50;61.30
18894;DHT22;9579;49.488;8.226;2023-06-05T03:32:33;17.50;61.00
18894;DHT22;9579;49.488;8.226;2023-06-05T03:35:20;17.40;61.20
18894;DHT22;9579;49.488;8.226;2023-06-05T03:38:09;17.30;61.60
18894;DHT22;9579;49.488;8.226;2023-06-05T03:40:56;17.30;61.40
18894;DHT22;9579;49.488;8.226;2023-06-05T03:43:43;17.20;61.10
18894;DHT22;9579;49.488;8.226;2023-06-05T03:46:30;17.20;61.70
18894;DHT22;9579;49.488;8.226;2023-06-05T03:49:17;17.20;62.10
18894;DHT22;9579;49.488;8.226;2023-06-05T03:52:06;17.20;61.60
18894;DHT22;9579;49.488;8.226;2023-06-05T03:54:55;17.20;62.70
18894;DHT22;9579;49.488;8.226;2023-06-05T03:57:43;17.20;62.30
18894;DHT22;9579;49.488;8.226;2023-06-05T04:00:30;17.20;62.00
18894;DHT22;9579;49.488;8.226;2023-06-05T04:03:17;17.20;62.40
18894;DHT22;9579;49.488;8.226;2023-06-05T04:06:06;17.30;62.40
18894;DHT22;9579;49.488;8.226;2023-06-05T04:08:54;17.40;63.40
18894;DHT22;9579;49.488;8.226;2023-06-05T04:11:44;17.40;62.70
18894;DHT22;9579;49.488;8.226;2023-06-05T04:14:31;17.50;63.20
18894;DHT22;9579;49.488;8.226;2023-06-05T04:17:18;17.50;63.10
18894;DHT22;9579;49.488;8.226;2023-06-05T04:20:07;17.60;63.10
18894;DHT22;9579;49.488;8.226;2023-06-05T04:22:59;17.60;61.30
18894;DHT22;9579;49.488;8.226;2023-06-05T04:25:46;17.60;61.50
18894;DHT22;9579;49.488;8.226;2023-06-05T04:28:36;17.60;61.20
18894;DHT22;9579;49.488;8.226;2023-06-05T04:31:23;17.60;61.90
18894;DHT22;9579;49.488;8.226;2023-06-05T04:34:10;17.60;61.80
18894;DHT22;9579;49.488;8.226;2023-06-05T04:36:58;17.60;62.30
18894;DHT22;9579;49.488;8.226;2023-06-05T04:39:45;17.60;62.10
18894;DHT22;9579;49.488;8.226;2023-06-05T04:42:32;17.70;63.40
18894;DHT22;9579;49.488;8.226;2023-06-05T04:45:20;17.80;62.50
18894;DHT22;9579;49.488;8.226;2023-06-05T04:48:08;17.80;63.60
18894;DHT22;9579;49.488;8.226;2023-06-05T04:50:55;17.80;62.70
18894;DHT22;9579;49.488;8.226;2023-06-05T04:53:42;17.90;62.70
18894;DHT22;9579;49.488;8.226;2023-06-05T04:56:29;18.00;63.60
18894;DHT22;9579;49.488;8.226;2023-06-05T04:59:18;18.00;62.80
18894;DHT22;9579;49.488;8.226;2023-06-05T05:02:06;18.10;61.70
18894;DHT22;9579;49.488;8.226;2023-06-05T05:04:53;18.20;61.90
18894;DHT22;9579;49.488;8.226;2023-06-05T05:07:41;18.30;63.70
18894;DHT22;9579;49.488;8.226;2023-06-05T05:10:28;18.40;63.60
18894;DHT22;9579;49.488;8.226;2023-06-05T05:13:15;18.50;62.40
18894;DHT22;9579;49.488;8.226;2023-06-05T05:16:03;18.60;62.20
18894;DHT22;9579;49.488;8.226;2023-06-05T05:18:51;18.70;62.20
18894;DHT22;9579;49.488;8.226;2023-06-05T05:21:38;18.80;62.20
18894;DHT22;9579;49.488;8.226;2023-06-05T05:24:26;18.90;61.70
18894;DHT22;9579;49.488;8.226;2023-06-05T05:27:13;19.10;61.30
18894;DHT22;9579;49.488;8.226;2023-06-05T05:30:00;19.20;61.00
18894;DHT22;9579;49.488;8.226;2023-06-05T05:32:48;19.30;60.80
18894;DHT22;9579;49.488;8.226;2023-06-05T05:35:36;19.40;60.20
18894;DHT22;9579;49.488;8.226;2023-06-05T05:38:24;19.60;60.80
18894;DHT22;9579;49.488;8.226;2023-06-05T05:41:11;19.60;59.90
18894;DHT22;9579;49.488;8.226;2023-06-05T05:43:58;19.70;60.50
18894;DHT22;9579;49.488;8.226;2023-06-05T05:46:46;19.90;60.10
18894;DHT22;9579;49.488;8.226;2023-06-05T05:49:33;20.10;59.90
18894;DHT22;9579;49.488;8.226;2023-06-05T05:52:22;20.10;60.10
18894;DHT22;9579;49.488;8.226;2023-06-05T05:55:09;20.40;59.70
18894;DHT22;9579;49.488;8.226;2023-06-05T05:57:56;20.40;60.00
18894;DHT22;9579;49.488;8.226;2023-06-05T06:00:43;20.50;59.60
18894;DHT22;9579;49.488;8.226;2023-06-05T06:03:31;20.50;59.20
18894;DHT22;9579;49.488;8.226;2023-06-05T06:06:19;20.60;59.90
18894;DHT22;9579;49.488;8.226;2023-06-05T06:09:15;20.70;59.30
18894;DHT22;9579;49.488;8.226;2023-06-05T06:12:04;20.90;59.40
18894;DHT22;9579;49.488;8.226;2023-06-05T06:14:53;21.00;59.20
18894;DHT22;9579;49.488;8.226;2023-06-05T06:17:40;21.20;58.50
18894;DHT22;9579;49.488;8.226;2023-06-05T06:20:27;21.50;58.30
18894;DHT22;9579;49.488;8.226;2023-06-05T06:23:14;21.50;58.20
18894;DHT22;9579;49.488;8.226;2023-06-05T06:26:03;21.60;57.70
18894;DHT22;9579;49.488;8.226;2023-06-05T06:28:52;21.70;57.80
18894;DHT22;9579;49.488;8.226;2023-06-05T06:31:40;21.80;57.10
18894;DHT22;9579;49.488;8.226;2023-06-05T06:34:28;21.90;57.80
18894;DHT22;9579;49.488;8.226;2023-06-05T06:37:15;22.10;57.90
18894;DHT22;9579;49.488;8.226;2023-06-05T06:40:03;22.30;57.10
18894;DHT22;9579;49.488;8.226;2023-06-05T06:42:56;22.50;57.00
18894;DHT22;9579;49.488;8.226;2023-06-05T06:45:43;22.70;57.80
18894;DHT22;9579;49.488;8.226;2023-06-05T06:48:30;23.00;56.90
18894;DHT22;9579;49.488;8.226;2023-06-05T06:51:18;23.10;57.40
18894;DHT22;9579;49.488;8.226;2023-06-05T06:54:07;23.30;56.00
18894;DHT22;9579;49.488;8.226;2023-06-05T06:56:54;23.50;55.90
18894;DHT22;9579;49.488;8.226;2023-06-05T06:59:44;23.50;56.40
18894;DHT22;9579;49.488;8.226;2023-06-05T07:02:31;23.50;56.00
18894;DHT22;9579;49.488;8.226;2023-06-05T07:05:18;23.80;55.50
18894;DHT22;9579;49.488;8.226;2023-06-05T07:08:06;23.90;55.50
18894;DHT22;9579;49.488;8.226;2023-06-05T07:10:53;24.10;56.10
18894;DHT22;9579;49.488;8.226;2023-06-05T07:13:41;24.20;54.30
18894;DHT22;9579;49.488;8.226;2023-06-05T07:16:31;24.40;54.90
18894;DHT22;9579;49.488;8.226;2023-06-05T07:19:18;24.60;54.40
18894;DHT22;9579;49.488;8.226;2023-06-05T07:22:06;24.90;54.00
18894;DHT22;9579;49.488;8.226;2023-06-05T07:24:53;25.20;54.50
18894;DHT22;9579;49.488;8.226;2023-06-05T07:27:40;25.30;54.20
18894;DHT22;9579;49.488;8.226;2023-06-05T07:30:29;25.50;54.30
18894;DHT22;9579;49.488;8.226;2023-06-05T07:33:18;25.60;52.20
18894;DHT22;9579;49.488;8.226;2023-06-05T07:36:06;25.70;52.10
18894;DHT22;9579;49.488;8.226;2023-06-05T07:38:53;25.70;53.60
18894;DHT22;9579;49.488;8.226;2023-06-05T07:41:42;25.90;52.60
18894;DHT22;9579;49.488;8.226;2023-06-05T07:44:29;25.90;52.50
18894;DHT22;9579;49.488;8.226;2023-06-05T07:47:16;26.00;51.60
18894;DHT22;9579;49.488;8.226;2023-06-05T07:50:05;26.10;51.50
18894;DHT22;9579;49.488;8.226;2023-06-05T07:52:53;26.20;51.10
18894;DHT22;9579;49.488;8.226;2023-06-05T07:55:40;26.30;52.20
18894;DHT22;9579;49.488;8.226;2023-06-05T07:58:27;26.40;51.60
18894;DHT22;9579;49.488;8.226;2023-06-05T08:01:15;26.60;50.90
18894;DHT22;9579;49.488;8.226;2023-06-05T08:04:02;27.00;50.00
18894;DHT22;9579;49.488;8.226;2023-06-05T08:06:51;26.90;50.30
18894;DHT22;9579;49.488;8.226;2023-06-05T08:09:39;27.10;50.00
18894;DHT22;9579;49.488;8.226;2023-06-05T08:12:26;27.30;49.20
18894;DHT22;9579;49.488;8.226;2023-06-05T08:15:14;27.40;49.40
18894;DHT22;9579;49.488;8.226;2023-06-05T08:18:01;27.20;49.60
18894;DHT22;9579;49.488;8.226;2023-06-05T08:20:48;27.10;50.50
18894;DHT22;9579;49.488;8.226;2023-06-05T08:23:37;27.40;49.80
18894;DHT22;9579;49.488;8.226;2023-06-05T08:26:24;27.60;49.40
18894;DHT22;9579;49.488;8.226;2023-06-05T08:29:12;27.70;49.00
18894;DHT22;9579;49.488;8.226;2023-06-05T08:31:59;27.80;48.90
18894;DHT22;9579;49.488;8.226;2023-06-05T08:34:46;27.90;49.50
18894;DHT22;9579;49.488;8.226;2023-06-05T08:37:33;28.00;49.10
18894;DHT22;9579;49.488;8.226;2023-06-05T08:40:22;28.10;49.70
18894;DHT22;9579;49.488;8.226;2023-06-05T08:43:14;28.10;49.20
18894;DHT22;9579;49.488;8.226;2023-06-05T08:46:01;28.20;49.30
18894;DHT22;9579;49.488;8.226;2023-06-05T08:48:49;28.50;48.30
18894;DHT22;9579;49.488;8.226;2023-06-05T08:51:39;28.50;47.90
18894;DHT22;9579;49.488;8.226;2023-06-05T08:54:27;28.60;48.00
18894;DHT22;9579;49.488;8.226;2023-06-05T08:57:16;28.60;48.70
18894;DHT22;9579;49.488;8.226;2023-06-05T09:00:04;28.70;49.00
18894;DHT22;9579;49.488;8.226;2023-06-05T09:02:53;28.80;48.90
18894;DHT22;9579;49.488;8.226;2023-06-05T09:05:42;28.90;48.10
18894;DHT22;9579;49.488;8.226;2023-06-05T09:08:30;28.70;48.80
18894;DHT22;9579;49.488;8.226;2023-06-05T09:11:25;28.80;49.00
18894;DHT22;9579;49.488;8.226;2023-06-05T09:14:25;28.90;49.60
18894;DHT22;9579;49.488;8.226;2023-06-05T09:17:13;29.00;48.20
18894;DHT22;9579;49.488;8.226;2023-06-05T09:20:01;29.30;48.10
18894;DHT22;9579;49.488;8.226;2023-06-05T09:22:49;29.50;49.00
18894;DHT22;9579;49.488;8.226;2023-06-05T09:25:44;29.50;47.90
18894;DHT22;9579;49.488;8.226;2023-06-05T09:28:33;29.50;48.50
18894;DHT22;9579;49.488;8.226;2023-06-05T09:31:22;29.70;47.70
18894;DHT22;9579;49.488;8.226;2023-06-05T09:34:10;29.80;48.70
18894;DHT22;9579;49.488;8.226;2023-06-05T09:36:57;30.10;48.40
18894;DHT22;9579;49.488;8.226;2023-06-05T09:39:49;29.30;49.60
18894;DHT22;9579;49.488;8.226;2023-06-05T09:42:36;29.70;48.80
18894;DHT22;9579;49.488;8.226;2023-06-05T09:45:41;29.30;49.30
18894;DHT22;9579;49.488;8.226;2023-06-05T09:48:29;29.80;49.20
18894;DHT22;9579;49.488;8.226;2023-06-05T09:51:19;30.40;48.90
18894;DHT22;9579;49.488;8.226;2023-06-05T09:54:06;30.60;48.80
18894;DHT22;9579;49.488;8.226;2023-06-05T09:56:57;30.70;48.00
18894;DHT22;9579;49.488;8.226;2023-06-05T09:59:48;30.80;47.90
18894;DHT22;9579;49.488;8.226;2023-06-05T10:02:37;30.80;48.80
18894;DHT22;9579;49.488;8.226;2023-06-05T10:05:26;31.00;48.50
18894;DHT22;9579;49.488;8.226;2023-06-05T10:08:14;31.30;49.00
18894;DHT22;9579;49.488;8.226;2023-06-05T10:11:02;31.30;49.40
18894;DHT22;9579;49.488;8.226;2023-06-05T10:13:50;31.40;48.30
18894;DHT22;9579;49.488;8.226;2023-06-05T10:16:38;31.50;48.50
18894;DHT22;9579;49.488;8.226;2023-06-05T10:19:25;31.70;48.40
18894;DHT22;9579;49.488;8.226;2023-06-05T10:22:17;31.80;49.20
18894;DHT22;9579;49.488;8.226;2023-06-05T10:25:06;31.80;48.30
18894;DHT22;9579;49.488;8.226;2023-06-05T10:28:01;31.60;49.30
18894;DHT22;9579;49.488;8.226;2023-06-05T10:34:22;32.00;48.60
18894;DHT22;9579;49.488;8.226;2023-06-05T10:37:34;31.90;48.10
18894;DHT22;9579;49.488;8.226;2023-06-05T10:40:25;31.10;49.50
18894;DHT22;9579;49.488;8.226;2023-06-05T10:43:31;31.70;49.90
18894;DHT22;9579;49.488;8.226;2023-06-05T10:46:28;31.80;49.10
18894;DHT22;9579;49.488;8.226;2023-06-05T10:49:17;32.00;49.30
18894;DHT22;9579;49.488;8.226;2023-06-05T10:52:05;31.90;47.70
18894;DHT22;9579;49.488;8.226;2023-06-05T10:55:14;31.90;48.80
18894;DHT22;9579;49.488;8.226;2023-06-05T10:58:06;32.40;47.60
18894;DHT22;9579;49.488;8.226;2023-06-05T11:01:16;32.50;47.90
18894;DHT22;9579;49.488;8.226;2023-06-05T11:04:04;32.00;47.90
18894;DHT22;9579;49.488;8.226;2023-06-05T11:07:15;31.00;48.70
18894;DHT22;9579;49.488;8.226;2023-06-05T11:10:11;30.90;50.40
18894;DHT22;9579;49.488;8.226;2023-06-05T11:13:03;32.00;48.90
18894;DHT22;9579;49.488;8.226;2023-06-05T11:15:50;32.20;47.50
18894;DHT22;9579;49.488;8.226;2023-06-05T11:18:40;32.50;48.50
18894;DHT22;9579;49.488;8.226;2023-06-05T11:25:24;32.90;48.30
18894;DHT22;9579;49.488;8.226;2023-06-05T11:28:43;33.30;46.30
18894;DHT22;9579;49.488;8.226;2023-06-05T11:31:31;32.90;47.00
18894;DHT22;9579;49.488;8.226;2023-06-05T11:34:18;33.40;45.80
18894;DHT22;9579;49.488;8.226;2023-06-05T11:37:16;33.90;45.50
18894;DHT22;9579;49.488;8.226;2023-06-05T11:40:05;34.10;45.00
18894;DHT22;9579;49.488;8.226;2023-06-05T11:43:01;34.50;46.00
18894;DHT22;9579;49.488;8.226;2023-06-05T11:45:51;34.80;45.20
18894;DHT22;9579;49.488;8.226;2023-06-05T11:48:43;35.20;44.50
18894;DHT22;9579;49.488;8.226;2023-06-05T11:51:34;33.90;44.30
18894;DHT22;9579;49.488;8.226;2023-06-05T11:54:27;34.40;45.80
18894;DHT22;9579;49.488;8.226;2023-06-05T11:57:15;35.00;43.30
18894;DHT22;9579;49.488;8.226;2023-06-05T12:00:04;35.00;44.50
18894;DHT22;9579;49.488;8.226;2023-06-05T12:02:54;35.50;42.10
18894;DHT22;9579;49.488;8.226;2023-06-05T12:05:42;34.90;42.30
18894;DHT22;9579;49.488;8.226;2023-06-05T12:08:31;35.50;42.50
18894;DHT22;9579;49.488;8.226;2023-06-05T12:11:20;36.00;42.80
18894;DHT22;9579;49.488;8.226;2023-06-05T12:14:10;36.20;43.10
18894;DHT22;9579;49.488;8.226;2023-06-05T12:16:57;36.80;40.80
18894;DHT22;9579;49.488;8.226;2023-06-05T12:19:53;37.30;40.50
18894;DHT22;9579;49.488;8.226;2023-06-05T12:22:41;37.90;41.10
18894;DHT22;9579;49.488;8.226;2023-06-05T12:25:28;36.30;40.20
18894;DHT22;9579;49.488;8.226;2023-06-05T12:28:18;36.30;40.00
18894;DHT22;9579;49.488;8.226;2023-06-05T12:31:05;35.70;39.90
18894;DHT22;9579;49.488;8.226;2023-06-05T12:33:52;35.10;40.10
18894;DHT22;9579;49.488;8.226;2023-06-05T12:36:41;34.80;40.00
18894;DHT22;9579;49.488;8.226;2023-06-05T12:39:28;33.80;40.20
18894;DHT22;9579;49.488;8.226;2023-06-05T12:42:15;34.40;40.10
18894;DHT22;9579;49.488;8.226;2023-06-05T12:45:03;35.50;39.90
18894;DHT22;9579;49.488;8.226;2023-06-05T12:47:50;36.50;38.90
18894;DHT22;9579;49.488;8.226;2023-06-05T12:50:37;37.10;39.00
18894;DHT22;9579;49.488;8.226;2023-06-05T12:53:28;37.60;39.10
18894;DHT22;9579;49.488;8.226;2023-06-05T12:56:15;38.10;39.40
18894;DHT22;9579;49.488;8.226;2023-06-05T12:59:02;38.50;39.50
18894;DHT22;9579;49.488;8.226;2023-06-05T13:01:49;38.60;36.80
18894;DHT22;9579;49.488;8.226;2023-06-05T13:04:36;37.90;38.80
18894;DHT22;9579;49.488;8.226;2023-06-05T13:07:23;38.60;38.90
18894;DHT22;9579;49.488;8.226;2023-06-05T13:10:15;39.10;36.90
18894;DHT22;9579;49.488;8.226;2023-06-05T13:13:02;39.00;37.30
18894;DHT22;9579;49.488;8.226;2023-06-05T13:15:49;39.00;38.10
18894;DHT22;9579;49.488;8.226;2023-06-05T13:18:36;39.30;37.20
18894;DHT22;9579;49.488;8.226;2023-06-05T13:21:23;39.20;35.90
18894;DHT22;9579;49.488;8.226;2023-06-05T13:24:11;39.10;36.30
18894;DHT22;9579;49.488;8.226;2023-06-05T13:26:59;39.20;37.20
18894;DHT22;9579;49.488;8.226;2023-06-05T13:29:46;39.10;36.10
18894;DHT22;9579;49.488;8.226;2023-06-05T13:32:34;39.00;37.10
18894;DHT22;9579;49.488;8.226;2023-06-05T13:35:23;38.80;37.30
18894;DHT22;9579;49.488;8.226;2023-06-05T13:38:10;38.60;37.10
18894;DHT22;9579;49.488;8.226;2023-06-05T13:41:05;37.50;37.30
18894;DHT22;9579;49.488;8.226;2023-06-05T13:43:53;38.10;38.70
18894;DHT22;9579;49.488;8.226;2023-06-05T13:46:42;38.80;37.00
18894;DHT22;9579;49.488;8.226;2023-06-05T13:49:30;39.00;37.10
18894;DHT22;9579;49.488;8.226;2023-06-05T13:52:17;39.10;36.70
18894;DHT22;9579;49.488;8.226;2023-06-05T13:55:06;39.20;38.10
18894;DHT22;9579;49.488;8.226;2023-06-05T13:57:53;39.40;36.30
18894;DHT22;9579;49.488;8.226;2023-06-05T14:00:46;39.40;36.60
18894;DHT22;9579;49.488;8.226;2023-06-05T14:03:34;37.00;37.60
18894;DHT22;9579;49.488;8.226;2023-06-05T14:06:23;37.50;37.10
18894;DHT22;9579;49.488;8.226;2023-06-05T14:09:10;38.20;37.80
18894;DHT22;9579;49.488;8.226;2023-06-05T14:11:57;38.70;37.00
18894;DHT22;9579;49.488;8.226;2023-06-05T14:14:44;38.90;36.20
18894;DHT22;9579;49.488;8.226;2023-06-05T14:17:32;38.90;36.10
18894;DHT22;9579;49.488;8.226;2023-06-05T14:20:20;37.70;35.90
18894;DHT22;9579;49.488;8.226;2023-06-05T14:23:07;38.30;37.20
18894;DHT22;9579;49.488;8.226;2023-06-05T14:25:54;38.60;36.10
18894;DHT22;9579;49.488;8.226;2023-06-05T14:28:41;39.10;35.90
18894;DHT22;9579;49.488;8.226;2023-06-05T14:31:28;38.20;35.30
18894;DHT22;9579;49.488;8.226;2023-06-05T14:34:18;39.00;36.60
18894;DHT22;9579;49.488;8.226;2023-06-05T14:37:06;39.20;35.40
18894;DHT22;9579;49.488;8.226;2023-06-05T14:39:53;39.30;35.50
18894;DHT22;9579;49.488;8.226;2023-06-05T14:42:40;39.30;36.50
18894;DHT22;9579;49.488;8.226;2023-06-05T14:45:27;39.30;34.70
18894;DHT22;9579;49.488;8.226;2023-06-05T14:48:14;39.20;36.20
18894;DHT22;9579;49.488;8.226;2023-06-05T14:51:03;39.20;34.90
18894;DHT22;9579;49.488;8.226;2023-06-05T14:53:50;39.20;35.50
18894;DHT22;9579;49.488;8.226;2023-06-05T14:56:37;39.10;36.10
18894;DHT22;9579;49.488;8.226;2023-06-05T14:59:24;39.00;34.90
18894;DHT22;9579;49.488;8.226;2023-06-05T15:02:11;38.80;35.10
18894;DHT22;9579;49.488;8.226;2023-06-05T15:04:58;38.80;36.20
18894;DHT22;9579;49.488;8.226;2023-06-05T15:07:46;39.00;34.80
18894;DHT22;9579;49.488;8.226;2023-06-05T15:10:33;38.80;35.80
18894;DHT22;9579;49.488;8.226;2023-06-05T15:13:20;38.20;35.00
18894;DHT22;9579;49.488;8.226;2023-06-05T15:16:10;38.50;34.70
18894;DHT22;9579;49.488;8.226;2023-06-05T15:18:59;38.60;34.80
18894;DHT22;9579;49.488;8.226;2023-06-05T15:21:46;38.40;34.50
18894;DHT22;9579;49.488;8.226;2023-06-05T15:24:34;38.00;33.60
18894;DHT22;9579;49.488;8.226;2023-06-05T15:27:21;38.40;35.40
18894;DHT22;9579;49.488;8.226;2023-06-05T15:30:09;38.50;34.60
18894;DHT22;9579;49.488;8.226;2023-06-05T15:32:56;38.50;34.80
18894;DHT22;9579;49.488;8.226;2023-06-05T15:35:51;37.90;33.80
18894;DHT22;9579;49.488;8.226;2023-06-05T15:38:38;37.30;34.80
18894;DHT22;9579;49.488;8.226;2023-06-05T15:41:27;36.70;35.20
18894;DHT22;9579;49.488;8.226;2023-06-05T15:44:14;36.30;34.40
18894;DHT22;9579;49.488;8.226;2023-06-05T15:47:02;35.70;35.90
18894;DHT22;9579;49.488;8.226;2023-06-05T15:49:49;34.80;38.30
18894;DHT22;9579;49.488;8.226;2023-06-05T15:52:38;34.90;38.10
18894;DHT22;9579;49.488;8.226;2023-06-05T15:55:25;35.10;37.00
18894;DHT22;9579;49.488;8.226;2023-06-05T15:58:13;35.00;37.60
18894;DHT22;9579;49.488;8.226;2023-06-05T16:01:00;34.80;38.70
18894;DHT22;9579;49.488;8.226;2023-06-05T16:03:48;34.20;38.80
18894;DHT22;9579;49.488;8.226;2023-06-05T16:06:35;33.00;40.80
18894;DHT22;9579;49.488;8.226;2023-06-05T16:09:22;32.40;42.60
18894;DHT22;9579;49.488;8.226;2023-06-05T16:12:09;32.80;42.20
18894;DHT22;9579;49.488;8.226;2023-06-05T16:14:58;33.00;41.00
18894;DHT22;9579;49.488;8.226;2023-06-05T16:17:45;33.10;41.20
18894;DHT22;9579;49.488;8.226;2023-06-05T16:20:32;33.00;41.70
18894;DHT22;9579;49.488;8.226;2023-06-05T16:23:19;32.80;40.70
18894;DHT22;9579;49.488;8.226;2023-06-05T16:26:06;32.80;41.50
18894;DHT22;9579;49.488;8.226;2023-06-05T16:28:53;32.70;42.30
18894;DHT22;9579;49.488;8.226;2023-06-05T16:31:42;32.70;41.40
18894;DHT22;9579;49.488;8.226;2023-06-05T16:34:29;32.50;42.20
18894;DHT22;9579;49.488;8.226;2023-06-05T16:37:16;32.30;42.40
18894;DHT22;9579;49.488;8.226;2023-06-05T16:40:04;32.30;42.40
18894;DHT22;9579;49.488;8.226;2023-06-05T16:42:51;32.30;43.70
18894;DHT22;9579;49.488;8.226;2023-06-05T16:45:38;32.20;41.80
18894;DHT22;9579;49.488;8.226;2023-06-05T16:48:26;32.20;43.10
18894;DHT22;9579;49.488;8.226;2023-06-05T16:51:13;32.00;43.20
18894;DHT22;9579;49.488;8.226;2023-06-05T16:54:01;32.00;41.90
18894;DHT22;9579;49.488;8.226;2023-06-05T16:56:50;31.90;42.70
18894;DHT22;9579;49.488;8.226;2023-06-05T16:59:37;31.70;43.20
18894;DHT22;9579;49.488;8.226;2023-06-05T17:02:24;31.60;43.20
18894;DHT22;9579;49.488;8.226;2023-06-05T17:05:12;31.40;42.90
18894;DHT22;9579;49.488;8.226;2023-06-05T17:07:59;31.30;43.60
18894;DHT22;9579;49.488;8.226;2023-06-05T17:10:46;31.10;43.30
18894;DHT22;9579;49.488;8.226;2023-06-05T17:13:33;30.80;43.60
18894;DHT22;9579;49.488;8.226;2023-06-05T17:16:20;30.60;43.60
18894;DHT22;9579;49.488;8.226;2023-06-05T17:19:07;30.50;44.30
18894;DHT22;9579;49.488;8.226;2023-06-05T17:21:56;30.40;44.40
18894;DHT22;9579;49.488;8.226;2023-06-05T17:24:50;30.50;44.40
18894;DHT22;9579;49.488;8.226;2023-06-05T17:27:43;30.50;44.30
18894;DHT22;9579;49.488;8.226;2023-06-05T17:30:54;30.40;44.60
18894;DHT22;9579;49.488;8.226;2023-06-05T17:34:05;30.10;44.20
18894;DHT22;9579;49.488;8.226;2023-06-05T17:36:53;29.90;44.80
18894;DHT22;9579;49.488;8.226;2023-06-05T17:39:44;29.80;45.20
18894;DHT22;9579;49.488;8.226;2023-06-05T17:42:33;29.80;45.60
18894;DHT22;9579;49.488;8.226;2023-06-05T17:45:20;29.80;44.80
18894;DHT22;9579;49.488;8.226;2023-06-05T17:48:08;29.60;45.30
18894;DHT22;9579;49.488;8.226;2023-06-05T17:50:55;29.60;45.30
18894;DHT22;9579;49.488;8.226;2023-06-05T17:53:42;29.30;45.10
18894;DHT22;9579;49.488;8.226;2023-06-05T17:56:30;29.20;46.00
18894;DHT22;9579;49.488;8.226;2023-06-05T17:59:17;29.20;46.30
18894;DHT22;9579;49.488;8.226;2023-06-05T18:02:05;29.10;46.20
18894;DHT22;9579;49.488;8.226;2023-06-05T18:04:54;29.00;46.40
18894;DHT22;9579;49.488;8.226;2023-06-05T18:07:50;28.90;46.70
18894;DHT22;9579;49.488;8.226;2023-06-05T18:11:00;28.80;47.90